sensor_id;sensor_type;location;lat;lon;timestamp;temperature;humidity
14283;DHT22;7225;59.282;18.344;2023-03-01T00:01:20;4.30;99.90
14283;DHT22;7225;59.282;18.344;2023-03-01T00:03:48;4.20;99.90
14283;DHT22;7225;59.282;18.344;2023-03-01T00:06:16;4.20;99.90
14283;DHT22;7225;59.282;18.344;2023-03-01T00:08:43;4.10;99.90
14283;DHT22;7225;59.282;18.344;2023-03-01T00:13:48;4.10;99.90
14283;DHT22;7225;59.282;18.344;2023-03-01T00:16:18;4.00;99.90
14283;DHT22;7225;59.282;18.344;2023-03-01T00:18:46;4.00;99.90
14283;DHT22;7225;59.282;18.344;2023-03-01T00:21:13;3.90;99.90
14283;DHT22;7225;59.282;18.344;2023-03-01T00:23:41;3.90;99.90
14283;DHT22;7225;59.282;18.344;2023-03-01T00:26:11;3.80;99.90
14283;DHT22;7225;59.282;18.344;2023-03-01T00:28:39;3.90;99.90
14283;DHT22;7225;59.282;18.344;2023-03-01T00:31:12;3.90;99.90
14283;DHT22;7225;59.282;18.344;2023-03-01T00:33:40;3.80;99.90
14283;DHT22;7225;59.282;18.344;2023-03-01T00:36:08;3.80;99.90
14283;DHT22;7225;59.282;18.344;2023-03-01T00:38:44;3.80;99.90
14283;DHT22;7225;59.282;18.344;2023-03-01T00:41:15;3.70;99.90
14283;DHT22;7225;59.282;18.344;2023-03-01T00:43:43;3.70;99.90
14283;DHT22;7225;59.282;18.344;2023-03-01T00:46:19;3.70;99.90
14283;DHT22;7225;59.282;18.344;2023-03-01T00:48:47;3.60;99.90
14283;DHT22;7225;59.282;18.344;2023-03-01T00:51:20;3.50;99.90
14283;DHT22;7225;59.282;18.344;2023-03-01T00:53:52;3.50;99.90
14283;DHT22;7225;59.282;18.344;2023-03-01T00:56:20;3.50;99.90
14283;DHT22;7225;59.282;18.344;2023-03-01T00:58:47;3.40;99.90
14283;DHT22;7225;59.282;18.344;2023-03-01T01:01:25;3.40;99.90
14283;DHT22;7225;59.282;18.344;2023-03-01T01:03:57;3.40;99.90
14283;DHT22;7225;59.282;18.344;2023-03-01T01:06:33;3.30;99.90
14283;DHT22;7225;59.282;18.344;2023-03-01T01:09:03;3.30;99.90
14283;DHT22;7225;59.282;18.344;2023-03-01T01:11:30;3.30;99.90
14283;DHT22;7225;59.282;18.344;2023-03-01T01:13:58;3.30;99.90
14283;DHT22;7225;59.282;18.344;2023-03-01T01:16:27;3.30;99.90
14283;DHT22;7225;59.282;18.344;2023-03-01T01:18:56;3.20;99.90
14283;DHT22;7225;59.282;18.344;2023-03-01T01:21:24;3.30;99.90
14283;DHT22;7225;59.282;18.344;2023-03-01T01:23:51;3.20;99.90
14283;DHT22;7225;59.282;18.344;2023-03-01T01:26:27;3.20;99.90
14283;DHT22;7225;59.282;18.344;2023-03-01T01:28:55;3.20;99.90
14283;DHT22;7225;59.282;18.344;2023-03-01T01:31:24;3.20;99.90
14283;DHT22;7225;59.282;18.344;2023-03-01T01:33:52;3.20;99.90
14283;DHT22;7225;59.282;18.344;2023-03-01T01:36:20;3.20;99.90
14283;DHT22;7225;59.282;18.344;2023-03-01T01:38:47;3.10;99.90
14283;DHT22;7225;59.282;18.344;2023-03-01T01:41:15;3.10;99.90
14283;DHT22;7225;59.282;18.344;2023-03-01T01:44:30;3.10;99.90
14283;DHT22;7225;59.282;18.344;2023-03-01T01:46:32;3.10;99.90
14283;DHT22;7225;59.282;18.344;2023-03-01T01:51:47;3.10;99.90
14283;DHT22;7225;59.282;18.344;2023-03-01T01:54:36;3.10;99.90
14283;DHT22;7225;59.282;18.344;2023-03-01T01:57:11;3.00;99.90
14283;DHT22;7225;59.282;18.344;2023-03-01T01:59:40;3.00;99.90
14283;DHT22;7225;59.282;18.344;2023-03-01T02:02:08;2.90;99.90
14283;DHT22;7225;59.282;18.344;2023-03-01T02:04:35;2.90;99.90
14283;DHT22;7225;59.282;18.344;2023-03-01T02:07:17;2.90;99.90
14283;DHT22;7225;59.282;18.344;2023-03-01T02:09:47;2.90;99.90
14283;DHT22;7225;59.282;18.344;2023-03-01T02:12:17;2.90;99.90
14283;DHT22;7225;59.282;18.344;2023-03-01T02:14:44;2.80;99.90
14283;DHT22;7225;59.282;18.344;2023-03-01T02:17:13;2.80;99.90
14283;DHT22;7225;59.282;18.344;2023-03-01T02:20:04;2.80;99.90
14283;DHT22;7225;59.282;18.344;2023-03-01T02:22:36;2.70;99.90
14283;DHT22;7225;59.282;18.344;2023-03-01T02:25:21;2.70;99.90
14283;DHT22;7225;59.282;18.344;2023-03-01T02:30:32;2.80;99.90
14283;DHT22;7225;59.282;18.344;2023-03-01T02:33:00;2.80;99.90
14283;DHT22;7225;59.282;18.344;2023-03-01T02:35:33;2.70;99.90
14283;DHT22;7225;59.282;18.344;2023-03-01T02:38:01;2.70;99.90
14283;DHT22;7225;59.282;18.344;2023-03-01T02:40:29;2.70;99.90
14283;DHT22;7225;59.282;18.344;2023-03-01T02:42:58;2.60;99.90
14283;DHT22;7225;59.282;18.344;2023-03-01T02:45:26;2.70;99.90
14283;DHT22;7225;59.282;18.344;2023-03-01T02:47:57;2.70;99.90
14283;DHT22;7225;59.282;18.344;2023-03-01T02:53:07;2.70;99.90
14283;DHT22;7225;59.282;18.344;2023-03-01T02:55:37;2.70;99.90
14283;DHT22;7225;59.282;18.344;2023-03-01T02:58:05;2.70;99.90
14283;DHT22;7225;59.282;18.344;2023-03-01T03:00:38;2.60;99.90
14283;DHT22;7225;59.282;18.344;2023-03-01T03:03:07;2.60;99.90
14283;DHT22;7225;59.282;18.344;2023-03-01T03:05:35;2.60;99.90
14283;DHT22;7225;59.282;18.344;2023-03-01T03:08:03;2.60;99.90
14283;DHT22;7225;59.282;18.344;2023-03-01T03:10:33;2.60;99.90
14283;DHT22;7225;59.282;18.344;2023-03-01T03:13:04;2.60;99.90
14283;DHT22;7225;59.282;18.344;2023-03-01T03:15:32;2.60;99.90
14283;DHT22;7225;59.282;18.344;2023-03-01T03:18:05;2.50;99.90
14283;DHT22;7225;59.282;18.344;2023-03-01T03:20:33;2.60;99.90
14283;DHT22;7225;59.282;18.344;2023-03-01T03:23:00;2.60;99.90
14283;DHT22;7225;59.282;18.344;2023-03-01T03:25:28;2.60;99.90
14283;DHT22;7225;59.282;18.344;2023-03-01T03:27:56;2.50;99.90
14283;DHT22;7225;59.282;18.344;2023-03-01T03:30:27;2.60;99.90
14283;DHT22;7225;59.282;18.344;2023-03-01T03:32:55;2.50;99.90
14283;DHT22;7225;59.282;18.344;2023-03-01T03:35:26;2.50;99.90
14283;DHT22;7225;59.282;18.344;2023-03-01T03:37:53;2.50;99.90
14283;DHT22;7225;59.282;18.344;2023-03-01T03:40:35;2.50;99.90
14283;DHT22;7225;59.282;18.344;2023-03-01T03:43:04;2.40;99.90
14283;DHT22;7225;59.282;18.344;2023-03-01T03:45:31;2.50;99.90
14283;DHT22;7225;59.282;18.344;2023-03-01T03:48:01;2.40;99.90
14283;DHT22;7225;59.282;18.344;2023-03-01T03:50:28;2.50;99.90
14283;DHT22;7225;59.282;18.344;2023-03-01T03:52:55;2.50;99.90
14283;DHT22;7225;59.282;18.344;2023-03-01T03:55:22;2.40;99.90
14283;DHT22;7225;59.282;18.344;2023-03-01T03:57:49;2.40;99.90
14283;DHT22;7225;59.282;18.344;2023-03-01T04:00:22;2.40;99.90
14283;DHT22;7225;59.282;18.344;2023-03-01T04:02:51;2.40;99.90
14283;DHT22;7225;59.282;18.344;2023-03-01T04:05:18;2.40;99.90
14283;DHT22;7225;59.282;18.344;2023-03-01T04:07:45;2.40;99.90
14283;DHT22;7225;59.282;18.344;2023-03-01T04:10:15;2.40;99.90
14283;DHT22;7225;59.282;18.344;2023-03-01T04:12:43;2.40;99.90
14283;DHT22;7225;59.282;18.344;2023-03-01T04:15:11;2.30;99.90
14283;DHT22;7225;59.282;18.344;2023-03-01T04:17:46;2.30;99.90
14283;DHT22;7225;59.282;18.344;2023-03-01T04:20:16;2.30;99.90
14283;DHT22;7225;59.282;18.344;2023-03-01T04:22:44;2.30;99.90
14283;DHT22;7225;59.282;18.344;2023-03-01T04:25:14;2.30;99.90
14283;DHT22;7225;59.282;18.344;2023-03-01T04:27:41;2.30;99.90
14283;DHT22;7225;59.282;18.344;2023-03-01T04:30:09;2.20;99.90
14283;DHT22;7225;59.282;18.344;2023-03-01T04:32:36;2.20;99.90
14283;DHT22;7225;59.282;18.344;2023-03-01T04:35:03;2.10;99.90
14283;DHT22;7225;59.282;18.344;2023-03-01T04:37:31;2.10;99.90
14283;DHT22;7225;59.282;18.344;2023-03-01T04:39:58;2.10;99.90
14283;DHT22;7225;59.282;18.344;2023-03-01T04:42:25;2.10;99.90
14283;DHT22;7225;59.282;18.344;2023-03-01T04:44:52;2.10;99.90
14283;DHT22;7225;59.282;18.344;2023-03-01T04:47:19;2.10;99.90
14283;DHT22;7225;59.282;18.344;2023-03-01T04:49:46;2.10;99.90
14283;DHT22;7225;59.282;18.344;2023-03-01T04:52:13;2.10;99.90
14283;DHT22;7225;59.282;18.344;2023-03-01T04:54:40;2.10;99.90
14283;DHT22;7225;59.282;18.344;2023-03-01T04:57:07;2.10;99.90
14283;DHT22;7225;59.282;18.344;2023-03-01T04:59:34;2.10;99.90
14283;DHT22;7225;59.282;18.344;2023-03-01T05:02:02;2.10;99.90
14283;DHT22;7225;59.282;18.344;2023-03-01T05:04:30;2.10;99.90
14283;DHT22;7225;59.282;18.344;2023-03-01T05:06:57;2.10;99.90
14283;DHT22;7225;59.282;18.344;2023-03-01T05:09:25;2.00;99.90
14283;DHT22;7225;59.282;18.344;2023-03-01T05:11:52;2.00;99.90
14283;DHT22;7225;59.282;18.344;2023-03-01T05:14:19;2.00;99.90
14283;DHT22;7225;59.282;18.344;2023-03-01T05:16:46;1.90;99.90
14283;DHT22;7225;59.282;18.344;2023-03-01T05:19:13;1.90;99.90
14283;DHT22;7225;59.282;18.344;2023-03-01T05:21:43;1.90;99.90
14283;DHT22;7225;59.282;18.344;2023-03-01T05:24:33;1.90;99.90
14283;DHT22;7225;59.282;18.344;2023-03-01T05:27:01;1.90;99.90
14283;DHT22;7225;59.282;18.344;2023-03-01T05:29:30;1.90;99.90
14283;DHT22;7225;59.282;18.344;2023-03-01T05:31:59;1.80;99.90
14283;DHT22;7225;59.282;18.344;2023-03-01T05:34:29;1.80;99.90
14283;DHT22;7225;59.282;18.344;2023-03-01T05:36:57;1.80;99.90
14283;DHT22;7225;59.282;18.344;2023-03-01T05:39:26;1.80;99.90
14283;DHT22;7225;59.282;18.344;2023-03-01T05:41:58;1.80;99.90
14283;DHT22;7225;59.282;18.344;2023-03-01T05:44:26;1.80;99.90
14283;DHT22;7225;59.282;18.344;2023-03-01T05:46:53;1.80;99.90
14283;DHT22;7225;59.282;18.344;2023-03-01T05:49:21;1.80;99.90
14283;DHT22;7225;59.282;18.344;2023-03-01T05:51:52;1.80;99.90
14283;DHT22;7225;59.282;18.344;2023-03-01T05:54:20;1.80;99.90
14283;DHT22;7225;59.282;18.344;2023-03-01T05:56:48;1.80;99.90
14283;DHT22;7225;59.282;18.344;2023-03-01T05:59:15;1.80;99.90
14283;DHT22;7225;59.282;18.344;2023-03-01T06:01:43;1.70;99.90
14283;DHT22;7225;59.282;18.344;2023-03-01T06:04:10;1.80;99.90
14283;DHT22;7225;59.282;18.344;2023-03-01T06:06:37;1.80;99.90
14283;DHT22;7225;59.282;18.344;2023-03-01T06:09:05;1.90;99.90
14283;DHT22;7225;59.282;18.344;2023-03-01T06:11:35;1.90;99.90
14283;DHT22;7225;59.282;18.344;2023-03-01T06:14:03;1.80;99.90
14283;DHT22;7225;59.282;18.344;2023-03-01T06:16:30;1.90;99.90
14283;DHT22;7225;59.282;18.344;2023-03-01T06:18:58;1.80;99.90
14283;DHT22;7225;59.282;18.344;2023-03-01T06:21:25;1.80;99.90
14283;DHT22;7225;59.282;18.344;2023-03-01T06:23:52;1.80;99.90
14283;DHT22;7225;59.282;18.344;2023-03-01T06:26:19;1.80;99.90
14283;DHT22;7225;59.282;18.344;2023-03-01T06:28:46;1.90;99.90
14283;DHT22;7225;59.282;18.344;2023-03-01T06:31:13;1.90;99.90
14283;DHT22;7225;59.282;18.344;2023-03-01T06:33:40;1.80;99.90
14283;DHT22;7225;59.282;18.344;2023-03-01T06:36:08;1.90;99.90
14283;DHT22;7225;59.282;18.344;2023-03-01T06:38:36;1.90;99.90
14283;DHT22;7225;59.282;18.344;2023-03-01T06:41:03;1.90;99.90
14283;DHT22;7225;59.282;18.344;2023-03-01T06:43:30;2.00;99.90
14283;DHT22;7225;59.282;18.344;2023-03-01T06:45:57;2.00;99.90
14283;DHT22;7225;59.282;18.344;2023-03-01T06:48:24;2.00;99.90
14283;DHT22;7225;59.282;18.344;2023-03-01T06:50:52;2.10;99.90
14283;DHT22;7225;59.282;18.344;2023-03-01T06:53:19;2.10;99.90
14283;DHT22;7225;59.282;18.344;2023-03-01T06:55:46;2.20;99.90
14283;DHT22;7225;59.282;18.344;2023-03-01T06:58:13;2.20;99.90
14283;DHT22;7225;59.282;18.344;2023-03-01T07:00:40;2.20;99.90
14283;DHT22;7225;59.282;18.344;2023-03-01T07:03:08;2.30;99.90
14283;DHT22;7225;59.282;18.344;2023-03-01T07:05:35;2.30;99.90
14283;DHT22;7225;59.282;18.344;2023-03-01T07:08:03;2.40;99.90
14283;DHT22;7225;59.282;18.344;2023-03-01T07:10:30;2.40;99.90
14283;DHT22;7225;59.282;18.344;2023-03-01T07:12:57;2.40;99.90
14283;DHT22;7225;59.282;18.344;2023-03-01T07:15:26;2.40;99.90
14283;DHT22;7225;59.282;18.344;2023-03-01T07:17:53;2.50;99.90
14283;DHT22;7225;59.282;18.344;2023-03-01T07:20:21;2.50;99.90
14283;DHT22;7225;59.282;18.344;2023-03-01T07:22:55;2.50;99.90
14283;DHT22;7225;59.282;18.344;2023-03-01T07:25:23;2.50;99.90
14283;DHT22;7225;59.282;18.344;2023-03-01T07:27:51;2.60;99.90
14283;DHT22;7225;59.282;18.344;2023-03-01T07:30:19;2.70;99.90
14283;DHT22;7225;59.282;18.344;2023-03-01T07:32:46;2.70;99.90
14283;DHT22;7225;59.282;18.344;2023-03-01T07:35:14;2.70;99.90
14283;DHT22;7225;59.282;18.344;2023-03-01T07:37:41;2.80;99.90
14283;DHT22;7225;59.282;18.344;2023-03-01T07:40:09;2.80;99.90
14283;DHT22;7225;59.282;18.344;2023-03-01T07:42:37;2.90;99.90
14283;DHT22;7225;59.282;18.344;2023-03-01T07:45:05;2.90;99.90
14283;DHT22;7225;59.282;18.344;2023-03-01T07:47:33;3.00;99.90
14283;DHT22;7225;59.282;18.344;2023-03-01T07:50:00;3.10;99.90
14283;DHT22;7225;59.282;18.344;2023-03-01T07:52:27;3.10;99.90
14283;DHT22;7225;59.282;18.344;2023-03-01T07:54:54;3.20;99.90
14283;DHT22;7225;59.282;18.344;2023-03-01T07:57:22;3.30;99.90
14283;DHT22;7225;59.282;18.344;2023-03-01T07:59:49;3.40;99.90
14283;DHT22;7225;59.282;18.344;2023-03-01T08:02:16;3.50;99.90
14283;DHT22;7225;59.282;18.344;2023-03-01T08:04:43;3.60;99.90
14283;DHT22;7225;59.282;18.344;2023-03-01T08:07:10;3.60;99.90
14283;DHT22;7225;59.282;18.344;2023-03-01T08:09:37;3.70;99.90
14283;DHT22;7225;59.282;18.344;2023-03-01T08:12:05;3.70;99.90
14283;DHT22;7225;59.282;18.344;2023-03-01T08:14:32;3.70;99.90
14283;DHT22;7225;59.282;18.344;2023-03-01T08:16:59;3.80;99.90
14283;DHT22;7225;59.282;18.344;2023-03-01T08:19:27;3.70;99.90
14283;DHT22;7225;59.282;18.344;2023-03-01T08:21:55;3.80;99.90
14283;DHT22;7225;59.282;18.344;2023-03-01T08:24:25;3.80;99.90
14283;DHT22;7225;59.282;18.344;2023-03-01T08:26:52;3.80;99.90
14283;DHT22;7225;59.282;18.344;2023-03-01T08:29:19;3.80;99.90
14283;DHT22;7225;59.282;18.344;2023-03-01T08:31:46;3.80;99.90
14283;DHT22;7225;59.282;18.344;2023-03-01T08:34:15;3.80;99.90
14283;DHT22;7225;59.282;18.344;2023-03-01T08:36:44;3.90;99.90
14283;DHT22;7225;59.282;18.344;2023-03-01T08:39:14;3.90;99.90
14283;DHT22;7225;59.282;18.344;2023-03-01T08:41:42;3.90;99.90
14283;DHT22;7225;59.282;18.344;2023-03-01T08:44:10;4.00;99.90
14283;DHT22;7225;59.282;18.344;2023-03-01T08:46:40;4.00;99.90
14283;DHT22;7225;59.282;18.344;2023-03-01T08:49:15;4.10;99.90
14283;DHT22;7225;59.282;18.344;2023-03-01T08:51:44;4.10;99.90
14283;DHT22;7225;59.282;18.344;2023-03-01T08:54:17;4.10;99.90
14283;DHT22;7225;59.282;18.344;2023-03-01T08:56:45;4.20;99.90
14283;DHT22;7225;59.282;18.344;2023-03-01T08:59:13;4.20;99.90
14283;DHT22;7225;59.282;18.344;2023-03-01T09:01:41;4.30;99.90
14283;DHT22;7225;59.282;18.344;2023-03-01T09:04:11;4.30;99.90
14283;DHT22;7225;59.282;18.344;2023-03-01T09:06:38;4.30;99.90
14283;DHT22;7225;59.282;18.344;2023-03-01T09:09:05;4.30;99.90
14283;DHT22;7225;59.282;18.344;2023-03-01T09:11:32;4.40;99.90
14283;DHT22;7225;59.282;18.344;2023-03-01T09:13:59;4.50;99.90
14283;DHT22;7225;59.282;18.344;2023-03-01T09:16:26;4.50;99.90
14283;DHT22;7225;59.282;18.344;2023-03-01T09:18:54;4.60;99.90
14283;DHT22;7225;59.282;18.344;2023-03-01T09:21:22;4.60;99.90
14283;DHT22;7225;59.282;18.344;2023-03-01T09:24:08;4.70;99.90
14283;DHT22;7225;59.282;18.344;2023-03-01T09:26:38;4.70;99.90
14283;DHT22;7225;59.282;18.344;2023-03-01T09:29:05;4.80;99.90
14283;DHT22;7225;59.282;18.344;2023-03-01T09:31:32;4.80;99.90
14283;DHT22;7225;59.282;18.344;2023-03-01T09:33:59;4.90;99.90
14283;DHT22;7225;59.282;18.344;2023-03-01T09:36:26;4.90;99.90
14283;DHT22;7225;59.282;18.344;2023-03-01T09:38:53;5.00;99.90
14283;DHT22;7225;59.282;18.344;2023-03-01T09:41:34;5.00;99.90
14283;DHT22;7225;59.282;18.344;2023-03-01T09:47:01;5.10;99.90
14283;DHT22;7225;59.282;18.344;2023-03-01T09:49:33;5.10;99.90
14283;DHT22;7225;59.282;18.344;2023-03-01T09:52:28;5.20;99.90
14283;DHT22;7225;59.282;18.344;2023-03-01T09:54:56;5.30;99.90
14283;DHT22;7225;59.282;18.344;2023-03-01T09:57:41;5.40;99.90
14283;DHT22;7225;59.282;18.344;2023-03-01T10:03:16;5.50;99.90
14283;DHT22;7225;59.282;18.344;2023-03-01T10:06:10;5.70;99.90
14283;DHT22;7225;59.282;18.344;2023-03-01T10:09:12;5.80;99.90
14283;DHT22;7225;59.282;18.344;2023-03-01T10:11:49;5.90;99.90
14283;DHT22;7225;59.282;18.344;2023-03-01T10:17:16;6.30;99.90
14283;DHT22;7225;59.282;18.344;2023-03-01T10:19:47;6.40;99.90
14283;DHT22;7225;59.282;18.344;2023-03-01T10:22:26;6.50;99.90
14283;DHT22;7225;59.282;18.344;2023-03-01T10:24:58;6.80;99.90
14283;DHT22;7225;59.282;18.344;2023-03-01T10:27:36;6.90;99.90
14283;DHT22;7225;59.282;18.344;2023-03-01T10:32:58;7.00;99.90
14283;DHT22;7225;59.282;18.344;2023-03-01T10:35:29;7.20;99.90
14283;DHT22;7225;59.282;18.344;2023-03-01T10:38:11;7.20;99.90
14283;DHT22;7225;59.282;18.344;2023-03-01T10:41:05;7.40;99.90
14283;DHT22;7225;59.282;18.344;2023-03-01T10:43:47;7.50;99.90
14283;DHT22;7225;59.282;18.344;2023-03-01T10:46:36;7.40;99.90
14283;DHT22;7225;59.282;18.344;2023-03-01T10:49:21;7.50;99.90
14283;DHT22;7225;59.282;18.344;2023-03-01T10:51:50;7.70;99.90
14283;DHT22;7225;59.282;18.344;2023-03-01T10:54:30;7.80;99.90
14283;DHT22;7225;59.282;18.344;2023-03-01T10:57:01;7.80;99.90
14283;DHT22;7225;59.282;18.344;2023-03-01T10:59:33;8.00;99.90
14283;DHT22;7225;59.282;18.344;2023-03-01T11:02:26;8.00;99.90
14283;DHT22;7225;59.282;18.344;2023-03-01T11:05:16;8.00;99.90
14283;DHT22;7225;59.282;18.344;2023-03-01T11:07:49;8.10;99.90
14283;DHT22;7225;59.282;18.344;2023-03-01T11:10:22;8.20;99.90
14283;DHT22;7225;59.282;18.344;2023-03-01T11:12:51;8.30;99.90
14283;DHT22;7225;59.282;18.344;2023-03-01T11:15:27;8.40;99.90
14283;DHT22;7225;59.282;18.344;2023-03-01T11:17:56;8.50;99.90
14283;DHT22;7225;59.282;18.344;2023-03-01T11:20:38;8.60;99.90
14283;DHT22;7225;59.282;18.344;2023-03-01T11:23:13;8.70;99.90
14283;DHT22;7225;59.282;18.344;2023-03-01T11:26:09;8.90;99.90
14283;DHT22;7225;59.282;18.344;2023-03-01T11:28:40;9.10;99.90
14283;DHT22;7225;59.282;18.344;2023-03-01T11:31:10;9.30;99.90
14283;DHT22;7225;59.282;18.344;2023-03-01T11:36:51;9.50;99.90
14283;DHT22;7225;59.282;18.344;2023-03-01T11:39:47;9.80;99.90
14283;DHT22;7225;59.282;18.344;2023-03-01T11:42:31;10.00;99.90
14283;DHT22;7225;59.282;18.344;2023-03-01T11:45:08;10.20;99.90
14283;DHT22;7225;59.282;18.344;2023-03-01T11:50:30;10.50;99.90
14283;DHT22;7225;59.282;18.344;2023-03-01T11:58:16;10.90;99.90
14283;DHT22;7225;59.282;18.344;2023-03-01T12:15:03;11.30;99.90
14283;DHT22;7225;59.282;18.344;2023-03-01T12:24:02;11.70;99.90
14283;DHT22;7225;59.282;18.344;2023-03-01T12:26:38;11.90;99.90
14283;DHT22;7225;59.282;18.344;2023-03-01T12:40:27;12.30;99.90
14283;DHT22;7225;59.282;18.344;2023-03-01T12:49:08;12.40;99.90
14283;DHT22;7225;59.282;18.344;2023-03-01T12:51:38;12.60;99.90
14283;DHT22;7225;59.282;18.344;2023-03-01T12:54:19;12.50;99.90
14283;DHT22;7225;59.282;18.344;2023-03-01T12:56:47;12.50;99.90
14283;DHT22;7225;59.282;18.344;2023-03-01T13:02:26;12.60;99.90
14283;DHT22;7225;59.282;18.344;2023-03-01T13:08:20;12.70;99.90
14283;DHT22;7225;59.282;18.344;2023-03-01T13:11:00;12.40;99.90
14283;DHT22;7225;59.282;18.344;2023-03-01T13:13:28;12.60;99.90
14283;DHT22;7225;59.282;18.344;2023-03-01T13:15:56;12.60;99.90
14283;DHT22;7225;59.282;18.344;2023-03-01T13:20:59;12.80;99.90
14283;DHT22;7225;59.282;18.344;2023-03-01T13:23:30;12.80;99.90
14283;DHT22;7225;59.282;18.344;2023-03-01T13:26:07;12.80;99.90
14283;DHT22;7225;59.282;18.344;2023-03-01T13:31:04;12.70;99.90
14283;DHT22;7225;59.282;18.344;2023-03-01T13:36:00;12.80;99.90
14283;DHT22;7225;59.282;18.344;2023-03-01T13:38:38;12.80;99.90
14283;DHT22;7225;59.282;18.344;2023-03-01T13:41:06;12.80;99.90
14283;DHT22;7225;59.282;18.344;2023-03-01T13:43:38;12.80;99.90
14283;DHT22;7225;59.282;18.344;2023-03-01T13:46:25;12.80;99.90
14283;DHT22;7225;59.282;18.344;2023-03-01T13:48:55;12.70;99.90
14283;DHT22;7225;59.282;18.344;2023-03-01T13:51:25;12.80;99.90
14283;DHT22;7225;59.282;18.344;2023-03-01T13:53:54;12.80;99.90
14283;DHT22;7225;59.282;18.344;2023-03-01T13:56:26;12.80;99.90
14283;DHT22;7225;59.282;18.344;2023-03-01T13:59:19;12.70;99.90
14283;DHT22;7225;59.282;18.344;2023-03-01T14:02:00;12.60;99.90
14283;DHT22;7225;59.282;18.344;2023-03-01T14:04:29;12.80;99.90
14283;DHT22;7225;59.282;18.344;2023-03-01T14:07:19;12.80;99.90
14283;DHT22;7225;59.282;18.344;2023-03-01T14:10:04;12.80;99.90
14283;DHT22;7225;59.282;18.344;2023-03-01T14:15:04;12.70;99.90
14283;DHT22;7225;59.282;18.344;2023-03-01T14:20:37;12.80;99.90
14283;DHT22;7225;59.282;18.344;2023-03-01T14:23:11;12.70;99.90
14283;DHT22;7225;59.282;18.344;2023-03-01T14:25:47;12.60;99.90
14283;DHT22;7225;59.282;18.344;2023-03-01T14:28:21;12.40;99.90
14283;DHT22;7225;59.282;18.344;2023-03-01T14:30:50;12.20;99.90
14283;DHT22;7225;59.282;18.344;2023-03-01T14:35:58;11.70;99.90
14283;DHT22;7225;59.282;18.344;2023-03-01T14:41:07;11.40;99.90
14283;DHT22;7225;59.282;18.344;2023-03-01T14:43:41;11.30;99.90
14283;DHT22;7225;59.282;18.344;2023-03-01T14:46:25;11.10;99.90
14283;DHT22;7225;59.282;18.344;2023-03-01T14:48:57;11.00;99.90
14283;DHT22;7225;59.282;18.344;2023-03-01T14:51:25;10.80;99.90
14283;DHT22;7225;59.282;18.344;2023-03-01T14:53:52;10.70;99.90
14283;DHT22;7225;59.282;18.344;2023-03-01T14:56:19;10.60;99.90
14283;DHT22;7225;59.282;18.344;2023-03-01T14:58:50;10.40;99.90
14283;DHT22;7225;59.282;18.344;2023-03-01T15:01:18;10.30;99.90
14283;DHT22;7225;59.282;18.344;2023-03-01T15:03:47;10.30;99.90
14283;DHT22;7225;59.282;18.344;2023-03-01T15:06:18;10.30;99.90
14283;DHT22;7225;59.282;18.344;2023-03-01T15:08:48;10.10;99.90
14283;DHT22;7225;59.282;18.344;2023-03-01T15:11:21;10.10;99.90
14283;DHT22;7225;59.282;18.344;2023-03-01T15:13:49;10.00;99.90
14283;DHT22;7225;59.282;18.344;2023-03-01T15:16:19;9.90;99.90
14283;DHT22;7225;59.282;18.344;2023-03-01T15:18:54;9.90;99.90
14283;DHT22;7225;59.282;18.344;2023-03-01T15:21:24;9.80;99.90
14283;DHT22;7225;59.282;18.344;2023-03-01T15:24:04;9.80;99.90
14283;DHT22;7225;59.282;18.344;2023-03-01T15:26:43;9.70;99.90
14283;DHT22;7225;59.282;18.344;2023-03-01T15:29:18;9.70;99.90
14283;DHT22;7225;59.282;18.344;2023-03-01T15:32:00;9.70;99.90
14283;DHT22;7225;59.282;18.344;2023-03-01T15:37:01;9.50;99.90
14283;DHT22;7225;59.282;18.344;2023-03-01T15:42:10;9.40;99.90
14283;DHT22;7225;59.282;18.344;2023-03-01T15:44:42;9.40;99.90
14283;DHT22;7225;59.282;18.344;2023-03-01T15:47:30;9.40;99.90
14283;DHT22;7225;59.282;18.344;2023-03-01T15:49:59;9.30;99.90
14283;DHT22;7225;59.282;18.344;2023-03-01T15:52:32;9.20;99.90
14283;DHT22;7225;59.282;18.344;2023-03-01T15:55:06;9.20;99.90
14283;DHT22;7225;59.282;18.344;2023-03-01T15:57:40;9.20;99.90
14283;DHT22;7225;59.282;18.344;2023-03-01T16:00:12;9.10;99.90
14283;DHT22;7225;59.282;18.344;2023-03-01T16:02:42;9.10;99.90
14283;DHT22;7225;59.282;18.344;2023-03-01T16:05:20;9.00;99.90
14283;DHT22;7225;59.282;18.344;2023-03-01T16:07:48;9.00;99.90
14283;DHT22;7225;59.282;18.344;2023-03-01T16:10:15;9.00;99.90
14283;DHT22;7225;59.282;18.344;2023-03-01T16:12:42;9.00;99.90
14283;DHT22;7225;59.282;18.344;2023-03-01T16:15:25;8.90;99.90
14283;DHT22;7225;59.282;18.344;2023-03-01T16:17:56;8.90;99.90
14283;DHT22;7225;59.282;18.344;2023-03-01T16:20:25;8.90;99.90
14283;DHT22;7225;59.282;18.344;2023-03-01T16:23:00;8.80;99.90
14283;DHT22;7225;59.282;18.344;2023-03-01T16:25:29;8.80;99.90
14283;DHT22;7225;59.282;18.344;2023-03-01T16:27:56;8.80;99.90
14283;DHT22;7225;59.282;18.344;2023-03-01T16:30:25;8.80;99.90
14283;DHT22;7225;59.282;18.344;2023-03-01T16:32:52;8.80;99.90
14283;DHT22;7225;59.282;18.344;2023-03-01T16:35:21;8.70;99.90
14283;DHT22;7225;59.282;18.344;2023-03-01T16:37:48;8.70;99.90
14283;DHT22;7225;59.282;18.344;2023-03-01T16:40:24;8.70;99.90
14283;DHT22;7225;59.282;18.344;2023-03-01T16:42:54;8.70;99.90
14283;DHT22;7225;59.282;18.344;2023-03-01T16:45:33;8.60;99.90
14283;DHT22;7225;59.282;18.344;2023-03-01T16:48:03;8.70;99.90
14283;DHT22;7225;59.282;18.344;2023-03-01T16:50:30;8.60;99.90
14283;DHT22;7225;59.282;18.344;2023-03-01T16:52:57;8.60;99.90
14283;DHT22;7225;59.282;18.344;2023-03-01T16:55:24;8.60;99.90
14283;DHT22;7225;59.282;18.344;2023-03-01T16:57:51;8.60;99.90
14283;DHT22;7225;59.282;18.344;2023-03-01T17:00:18;8.60;99.90
14283;DHT22;7225;59.282;18.344;2023-03-01T17:02:45;8.50;99.90
14283;DHT22;7225;59.282;18.344;2023-03-01T17:05:13;8.50;99.90
14283;DHT22;7225;59.282;18.344;2023-03-01T17:07:40;8.50;99.90
14283;DHT22;7225;59.282;18.344;2023-03-01T17:10:09;8.50;99.90
14283;DHT22;7225;59.282;18.344;2023-03-01T17:12:37;8.40;99.90
14283;DHT22;7225;59.282;18.344;2023-03-01T17:15:05;8.50;99.90
14283;DHT22;7225;59.282;18.344;2023-03-01T17:17:33;8.50;99.90
14283;DHT22;7225;59.282;18.344;2023-03-01T17:20:02;8.40;99.90
14283;DHT22;7225;59.282;18.344;2023-03-01T17:22:30;8.40;99.90
14283;DHT22;7225;59.282;18.344;2023-03-01T17:24:57;8.40;99.90
14283;DHT22;7225;59.282;18.344;2023-03-01T17:27:24;8.40;99.90
14283;DHT22;7225;59.282;18.344;2023-03-01T17:29:51;8.40;99.90
14283;DHT22;7225;59.282;18.344;2023-03-01T17:32:18;8.40;99.90
14283;DHT22;7225;59.282;18.344;2023-03-01T17:34:45;8.40;99.90
14283;DHT22;7225;59.282;18.344;2023-03-01T17:37:12;8.40;99.90
14283;DHT22;7225;59.282;18.344;2023-03-01T17:39:39;8.40;99.90
14283;DHT22;7225;59.282;18.344;2023-03-01T17:42:07;8.40;99.90
14283;DHT22;7225;59.282;18.344;2023-03-01T17:44:34;8.30;99.90
14283;DHT22;7225;59.282;18.344;2023-03-01T17:47:03;8.40;99.90
14283;DHT22;7225;59.282;18.344;2023-03-01T17:49:30;8.40;99.90